Nederlandse vliegveldverwachtingen (TAF)

Luchtvaartmeteorologische informatie voor operationeel gebruik en vluchtvoorbereiding is beschikbaar op www.luchtvaartmeteo.nl.

ZCZC
FT010500 EHEH RRA EINDHOVEN/EINDHOVEN   NLD   22 m.
TAF EHEH 010544Z 0106/0212 25006KT 4500 -RA SCT012 BKN028
    PROB40 TEMPO 0106/0111 33012G24KT 2500 RA SHRA SCT005
    FEW010CB BKN014
    BECMG 0110/0112 36012KT 9999 SCT018 SCT035
    BECMG 0117/0119 03006KT 3000 -DZRA SCT005 BKN010
    PROB30 TEMPO 0119/0212 1500 DZ SCT002 OVC003=

ZCZC
FC010900 EHGR RRA GILZE-RIJEN/GILZE-RIJEN   NLD   14 m.
TAF EHGR 010906Z 0110/0122 34012KT 6000 -RA SCT010 BKN018
    PROB40 TEMPO 0110/0112 35014G24KT 3000 RA SHRA SCT005
    BKN010 SCT016CB
    BECMG 0111/0113 FEW018 SCT035
    BECMG 0115/0118 02007KT
    BECMG 0118/0121 SCT006 BKN010
    PROB40 0120/0122 4000 BR -DZ SCT003 BKN006=

ZCZC
FC010900 EHVK RRB VOLKEL/VOLKEL   NLD   21 m.
TAF EHVK 010920Z 0110/0122 34010KT 6000 -RA SCT010 BKN018
    PROB40 TEMPO 0110/0112 35013G23KT 3000 RA SHRA SCT005
    BKN010 SCT016CB
    BECMG 0111/0113 FEW018 SCT035
    BECMG 0115/0118 02007KT
    BECMG 0117/0120 SCT006 BKN010
    PROB40 0119/0122 4000 BR -DZ SCT003 BKN006=

ZCZC
FC010900 EHWO RRD WOENSDRECHT/WOENSDRECHT   NLD   19 m.
TAF EHWO 010924Z 0110/0122 35010G20KT 9999 SCT025 BKN035
    BECMG 0115/0118 02007KT
    BECMG 0120/0122 SCT006 BKN010
    PROB40 0121/0122 4000 BR -DZ SCT003 BKN006=

ZCZC
FC010900 EHKD RRE DE KOOY/DE KOOY   NLD   1 m.
TAF EHKD 010938Z 0110/0122 35017G27KT 9999 FEW024 BKN040
    BECMG 0112/0115 01010KT
    BECMG 0118/0121 04005KT=

ZCZC
FC010900 EHLW RRF LEEUWARDEN/LEEUWARDEN   NLD   1 m.
TAF EHLW 010931Z 0110/0122 36018G28KT 9999 BKN035
    BECMG 0110/0112 36012KT
    BECMG 0114/0117 04005KT
    BECMG 0117/0120 SCT006 BKN010
    PROB40 0120/0122 3000 BR -DZ SCT003 BKN006=

ZCZC
FT011100 EHAM     AMSTERDAM/SCHIPHOL   NLD   -3 m.
TAF EHAM 011109Z 0112/0218 35015KT 9999 SCT030
    BECMG 0114/0117 36008KT
    BECMG 0122/0201 04005KT 4500 BR SCT005 BKN008
    PROB30 0200/0212 2000 -DZ SCT002 BKN003
    BECMG 0209/0212 18005KT 6000 NSW=

ZCZC
FT011100 EHBK     MAASTRICHT/MAASTRICHT-AACHEN   NLD   114 m.
TAF EHBK 011105Z 0112/0218 34010KT 4500 BR BKN008
    BECMG 0112/0114 9000 -RA BKN016
    TEMPO 0112/0116 6000 -RADZ BKN012
    PROB30 TEMPO 0112/0116 BKN008
    BECMG 0116/0119 03008KT 4500 BR BKN006
    BECMG 0119/0122 2000 BKN002
    PROB40 0200/0218 0600 -DZ FG BKN000=

ZCZC
FT011100 EHGG     GRONINGEN/EELDE   NLD   5 m.
TAF EHGG 011110Z 0112/0218 01010KT 9999 SCT013 BKN020
    PROB30 TEMPO 0112/0115 6000 -RADZ BKN012
    BECMG 0115/0118 4000 BR BKN008
    BECMG 0118/0121 05006KT
    BECMG 0123/0202 2500 BKN002
    PROB30 0202/0210 0800 FG BKN000
    PROB30 0211/0218 5000 BKN005=

ZCZC
FT011100 EHLE     LELYSTAD/LELYSTAD   NLD   -3 m.
TAF EHLE 011109Z 0112/0218 35015KT 9999 SCT025
    BECMG 0115/0118 02010KT
    BECMG 0120/0123 06005KT 4500 BR SCT005 BKN008
    PROB40 0122/0212 1400 -DZ SCT002 BKN003
    BECMG 0212/0215 19005KT=

ZCZC
FT011100 EHRD     ROTTERDAM/THE HAGUE AIRPORT   NLD   -5 m.
TAF EHRD 011109Z 0112/0218 35015KT 9999 SCT030
    BECMG 0114/0117 36008KT
    BECMG 0122/0201 04005KT 4500 BR SCT005 BKN008
    PROB30 0200/0212 2000 -DZ SCT002 BKN003
    BECMG 0209/0212 18005KT 6000 NSW=

01/12/2020 12.30 uur LT